createdAt,value
2023-04-19T00:04:22.588Z,10.01
2023-04-19T00:09:22.118Z,10.00
2023-04-19T00:14:22.036Z,9.99
2023-04-19T00:19:21.973Z,9.94
2023-04-19T00:24:21.896Z,9.91
2023-04-19T00:29:21.841Z,9.93
2023-04-19T00:34:21.806Z,9.91
2023-04-19T00:39:21.696Z,9.86
2023-04-19T00:44:21.663Z,9.88
2023-04-19T00:49:21.579Z,9.97
2023-04-19T00:54:21.512Z,10.04
2023-04-19T00:59:21.432Z,10.03
2023-04-19T01:04:21.430Z,10.03
2023-04-19T01:09:21.322Z,9.89
2023-04-19T01:14:21.248Z,9.73
2023-04-19T01:19:21.183Z,9.73
2023-04-19T01:24:21.118Z,9.66
2023-04-19T01:29:21.048Z,9.89
2023-04-19T01:34:20.980Z,9.70
2023-04-19T01:39:20.918Z,9.67
2023-04-19T01:44:20.876Z,10.00
2023-04-19T01:49:20.806Z,9.83
2023-04-19T01:54:20.733Z,9.71
2023-04-19T01:59:20.675Z,9.91
2023-04-19T02:04:20.661Z,9.56
2023-04-19T02:09:20.540Z,9.46
2023-04-19T02:14:20.472Z,9.45
2023-04-19T02:19:20.452Z,9.40
2023-04-19T02:24:20.414Z,9.27
2023-04-19T02:29:20.332Z,9.20
2023-04-19T02:34:20.275Z,9.16
2023-04-19T02:39:20.217Z,9.27
2023-04-19T02:44:20.127Z,9.24
2023-04-19T02:49:20.075Z,9.12
2023-04-19T02:54:19.991Z,9.05
2023-04-19T02:59:19.931Z,9.02
2023-04-19T03:04:19.920Z,9.06
2023-04-19T03:09:19.810Z,9.02
2023-04-19T03:14:19.712Z,9.06
2023-04-19T03:19:19.660Z,8.90
2023-04-19T03:24:19.593Z,8.90
2023-04-19T03:29:19.521Z,8.84
2023-04-19T03:34:19.438Z,8.87
2023-04-19T03:39:19.389Z,8.86
2023-04-19T03:44:19.310Z,8.72
2023-04-19T03:49:19.253Z,8.66
2023-04-19T03:54:19.168Z,8.62
2023-04-19T03:59:19.152Z,8.50
2023-04-19T04:04:19.463Z,8.48
2023-04-19T04:09:18.984Z,8.48
2023-04-19T04:14:19.450Z,8.48
2023-04-19T04:19:18.869Z,8.47
2023-04-19T04:24:18.793Z,8.40
2023-04-19T04:29:18.721Z,8.30
2023-04-19T04:34:18.644Z,8.37
2023-04-19T04:39:18.560Z,8.36
2023-04-19T04:44:18.492Z,8.42
2023-04-19T04:49:18.443Z,8.32
2023-04-19T04:54:18.360Z,8.25
2023-04-19T04:59:18.304Z,8.37
2023-04-19T05:04:18.513Z,8.78
2023-04-19T05:09:18.172Z,10.65
2023-04-19T05:14:18.122Z,11.94
2023-04-19T05:19:18.057Z,11.83
2023-04-19T05:24:18.311Z,10.09
2023-04-19T05:29:17.911Z,10.51
2023-04-19T05:34:19.708Z,9.58
2023-04-19T05:39:17.798Z,9.01
2023-04-19T05:44:18.039Z,8.48
2023-04-19T05:49:17.684Z,8.47
2023-04-19T05:54:17.908Z,8.65
2023-04-19T05:59:17.665Z,8.81
2023-04-19T06:04:18.023Z,8.75
2023-04-19T06:09:17.475Z,8.48
2023-04-19T06:14:17.928Z,9.50
2023-04-19T06:19:17.275Z,9.57
2023-04-19T06:24:17.372Z,9.97
2023-04-19T06:29:17.153Z,9.91
2023-04-19T06:34:17.420Z,9.76
2023-04-19T06:39:17.034Z,9.76
2023-04-19T06:44:17.369Z,9.23
2023-04-19T06:49:16.908Z,9.66
2023-04-19T06:54:17.310Z,11.03
2023-04-19T06:59:16.780Z,12.75
2023-04-19T07:04:17.241Z,12.71
2023-04-19T07:09:16.639Z,13.41
2023-04-19T07:14:16.746Z,13.36
2023-04-19T07:19:16.566Z,13.87
2023-04-19T07:24:16.614Z,14.13
2023-04-19T07:29:16.410Z,13.87
2023-04-19T07:34:16.467Z,14.34
2023-04-19T07:39:16.282Z,15.57
2023-04-19T07:44:16.504Z,15.70
2023-04-19T07:49:16.120Z,13.81
2023-04-19T07:54:16.234Z,14.09
2023-04-19T07:59:16.022Z,13.07
2023-04-19T08:04:16.508Z,13.79
2023-04-19T08:09:15.925Z,14.57
2023-04-19T08:14:28.385Z,14.50
2023-04-19T08:19:16.758Z,13.99
2023-04-19T08:24:15.911Z,14.31
2023-04-19T08:29:15.837Z,13.91
2023-04-19T08:34:15.548Z,13.89
2023-04-19T08:39:29.038Z,12.99
2023-04-19T08:44:25.332Z,13.11
2023-04-19T08:49:16.562Z,13.04
2023-04-19T08:54:15.266Z,13.02
2023-04-19T08:59:18.470Z,12.54
2023-04-19T09:04:31.824Z,11.94
2023-04-19T09:09:33.400Z,12.52
2023-04-19T09:14:16.047Z,12.34
2023-04-19T09:19:23.375Z,12.51
2023-04-19T09:24:15.886Z,12.99
2023-04-19T09:29:15.241Z,12.92
2023-04-19T09:34:14.832Z,12.97
2023-04-19T09:39:15.391Z,13.09
2023-04-19T09:49:23.140Z,13.27
2023-04-19T09:54:15.523Z,12.42
2023-04-19T09:59:20.858Z,12.51
2023-04-19T10:09:14.921Z,11.87
2023-04-19T10:14:14.645Z,12.56
2023-04-19T10:19:14.339Z,12.69
2023-04-19T10:24:14.077Z,12.54
2023-04-19T10:29:14.181Z,12.96
2023-04-19T10:34:14.187Z,13.12
2023-04-19T10:39:14.105Z,13.27
2023-04-19T10:44:13.826Z,13.47
2023-04-19T10:49:13.935Z,13.58
2023-04-19T10:54:13.713Z,12.85
2023-04-19T10:59:13.728Z,12.56
2023-04-19T11:04:13.732Z,11.97
2023-04-19T11:09:13.552Z,12.46
2023-04-19T11:14:13.436Z,12.15
2023-04-19T11:19:13.545Z,13.49
2023-04-19T11:24:13.301Z,13.94
2023-04-19T11:29:13.343Z,13.47
2023-04-19T11:34:13.514Z,12.62
2023-04-19T11:39:13.072Z,11.87
2023-04-19T11:44:13.001Z,12.26
2023-04-19T11:49:12.921Z,12.09
2023-04-19T11:54:13.239Z,11.80
2023-04-19T11:59:12.777Z,12.51
2023-04-19T12:04:13.013Z,12.54
2023-04-19T12:09:12.713Z,13.09
2023-04-19T12:14:12.624Z,12.99
2023-04-19T12:19:12.550Z,13.44
2023-04-19T12:24:12.512Z,13.74
2023-04-19T12:29:12.409Z,13.44
2023-04-19T12:34:12.337Z,12.88
2023-04-19T12:39:12.270Z,12.79
2023-04-19T12:44:12.199Z,13.30
2023-04-19T12:49:12.161Z,13.56
2023-04-19T12:54:12.107Z,13.59
2023-04-19T12:59:12.015Z,13.56
2023-04-19T13:04:13.646Z,13.21
2023-04-19T13:09:14.900Z,12.92
2023-04-19T13:14:11.818Z,12.77
2023-04-19T13:19:11.779Z,13.07
2023-04-19T13:24:11.683Z,14.12
2023-04-19T13:29:11.622Z,14.31
2023-04-19T13:34:11.552Z,14.02
2023-04-19T13:39:11.537Z,13.33
2023-04-19T13:44:11.404Z,12.44
2023-04-19T13:49:11.369Z,12.44
2023-04-19T13:54:11.285Z,12.39
2023-04-19T13:59:11.260Z,12.48
2023-04-19T14:04:11.431Z,12.69
2023-04-19T14:09:11.125Z,11.83
2023-04-19T14:14:11.025Z,12.33
2023-04-19T14:19:10.985Z,11.01
2023-04-19T14:24:10.890Z,10.91
2023-04-19T14:29:10.871Z,9.94
2023-04-19T14:34:10.785Z,10.80
2023-04-19T14:39:10.763Z,9.71
2023-04-19T14:44:10.652Z,9.91
2023-04-19T14:49:10.652Z,11.21
2023-04-19T14:54:10.532Z,10.89
2023-04-19T14:59:10.456Z,11.10
2023-04-19T15:04:10.653Z,10.66
2023-04-19T15:09:10.390Z,9.68
2023-04-19T15:14:10.250Z,9.99
2023-04-19T15:19:10.200Z,9.75
2023-04-19T15:24:10.144Z,8.99
2023-04-19T15:29:10.086Z,8.94
2023-04-19T15:34:09.983Z,8.96
2023-04-19T15:39:09.909Z,8.90
2023-04-19T15:44:09.843Z,9.18
2023-04-19T15:49:09.778Z,8.71
2023-04-19T15:54:09.697Z,8.76
2023-04-19T15:59:09.670Z,8.40
2023-04-19T16:04:09.725Z,8.75
2023-04-19T16:09:09.518Z,8.79
2023-04-19T16:14:09.420Z,8.57
2023-04-19T16:19:09.366Z,8.54
2023-04-19T16:24:09.288Z,8.39
2023-04-19T16:29:09.234Z,8.47
2023-04-19T16:34:09.155Z,8.50
2023-04-19T16:39:09.083Z,8.29
2023-04-19T16:44:09.080Z,8.22
2023-04-19T16:49:09.015Z,8.57
2023-04-19T16:54:08.925Z,8.36
2023-04-19T16:59:08.896Z,8.07
2023-04-19T17:04:08.931Z,7.79
2023-04-19T17:09:08.730Z,7.62
2023-04-19T17:14:08.643Z,8.17
2023-04-19T17:19:08.596Z,8.29
2023-04-19T17:24:08.511Z,8.11
2023-04-19T17:29:08.464Z,8.45
2023-04-19T17:34:08.389Z,8.14
2023-04-19T17:39:08.339Z,8.86
2023-04-19T17:44:08.251Z,8.40
2023-04-19T17:49:08.186Z,8.42
2023-04-19T17:54:08.145Z,8.42
2023-04-19T17:59:08.911Z,8.53
2023-04-19T18:04:08.148Z,8.72
2023-04-19T18:09:07.942Z,8.96
2023-04-19T18:14:07.876Z,9.43
2023-04-19T18:19:07.781Z,8.57
2023-04-19T18:24:07.744Z,8.33
2023-04-19T18:29:07.674Z,8.28
2023-04-19T18:34:07.635Z,8.53
2023-04-19T18:39:07.542Z,8.29
2023-04-19T18:44:34.591Z,8.22
2023-04-19T18:49:08.377Z,7.94
2023-04-19T18:54:07.378Z,7.82
2023-04-19T18:59:07.302Z,7.67
2023-04-19T19:04:31.561Z,7.67
2023-04-19T19:09:08.200Z,7.87
2023-04-19T19:14:07.116Z,7.75
2023-04-19T19:19:07.007Z,7.45
2023-04-19T19:24:06.940Z,7.41
2023-04-19T19:29:06.884Z,7.41
2023-04-19T19:34:22.677Z,7.41
2023-04-19T19:39:07.769Z,7.40
2023-04-19T19:44:06.703Z,7.27
2023-04-19T19:49:06.752Z,7.20
2023-04-19T19:54:06.526Z,7.15
2023-04-19T19:59:06.540Z,7.13
2023-04-19T20:04:06.590Z,7.12
2023-04-19T20:09:06.367Z,7.01
2023-04-19T20:14:06.286Z,6.97
2023-04-19T20:19:06.219Z,6.90
2023-04-19T20:24:06.139Z,6.91
2023-04-19T20:29:06.066Z,6.86
2023-04-19T20:34:06.025Z,6.72
2023-04-19T20:39:06.722Z,6.72
2023-04-19T20:44:05.886Z,6.66
2023-04-19T20:49:06.420Z,6.76
2023-04-19T20:54:06.070Z,6.73
2023-04-19T20:59:05.687Z,6.84
2023-04-19T21:04:05.770Z,6.81
2023-04-19T21:09:05.583Z,6.83
2023-04-19T21:14:05.563Z,6.81
2023-04-19T21:19:05.443Z,6.84
2023-04-19T21:24:05.386Z,6.77
2023-04-19T21:29:05.301Z,6.71
2023-04-19T21:34:05.344Z,6.68
2023-04-19T21:39:05.188Z,6.59
2023-04-19T21:44:05.370Z,6.56
2023-04-19T21:49:05.221Z,6.50
2023-04-19T21:54:04.981Z,6.48
2023-04-19T21:59:04.958Z,6.46
2023-04-19T22:04:05.312Z,6.53
2023-04-19T22:09:04.771Z,6.51
2023-04-19T22:14:04.797Z,6.51
2023-04-19T22:19:04.725Z,6.46
2023-04-19T22:24:04.633Z,6.43
2023-04-19T22:29:04.564Z,6.41
2023-04-19T22:34:04.459Z,6.47
2023-04-19T22:39:04.385Z,6.47
2023-04-19T22:44:04.319Z,6.40
2023-04-19T22:49:04.268Z,6.36
2023-04-19T22:54:04.251Z,6.30
2023-04-19T22:59:04.123Z,6.28
2023-04-19T23:04:04.145Z,6.22
2023-04-19T23:09:03.972Z,6.29
2023-04-19T23:14:03.930Z,6.28
2023-04-19T23:19:03.938Z,6.28
2023-04-19T23:24:03.769Z,6.22
2023-04-19T23:29:03.694Z,6.16
2023-04-19T23:34:03.648Z,6.29
2023-04-19T23:39:03.568Z,6.19
2023-04-19T23:44:03.504Z,6.11
2023-04-19T23:49:03.428Z,6.10
2023-04-19T23:54:03.425Z,6.04
2023-04-19T23:59:03.304Z,6.10
